• Join FlightAware (Why Join?)
  • Login
  • US Flag GB Flag 
04:02 EDT


 

Airport Tracker/Info


-or-


 

Live Flight TrackerFlight Track Log ✈ GJS3710 ✈ 02-May-2013 ✈ KMSY - KORD

Flight Track Log - Related Links

Times and Time Zones

All times are in EDT time to prevent confusion due to time zone crossing. See the GJS3710 flight status page for this flight to view local times or setup timezone preferences in your user account.

Time Position Orientation Groundspeed Altitude Reporting Facility
EDT Latitude Longitude Course Direction KTS MPH feet Rate Location/Type
16:36 30.0072 -90.2456 60° Northeast 152 175 400  Level Houston Center
16:37 30.0369 -90.1925 57° Northeast 174 200 2,900 2,100 Climbing Houston Center
16:38 30.0558 -90.1258 72° East 242 278 5,100 2,220 Climbing Houston Center
16:39 30.0969 -90.0550 56° Northeast 243 280 7,500 1,920 Climbing Houston Center
16:40 29.9869 -89.7526 74° East  Level FlightAware Approximate
16:41 30.0302 -89.6396 60° Northeast  Level FlightAware Approximate
16:41 30.2364 -90.0332 North  Level Estimated
16:44 30.3775 -89.6372 North 351 404 17,400  Level Houston Center
16:45 30.4661 -89.5806 North 379 436 18,400 1,260 Climbing Houston Center
16:46 30.4981 -89.6216 North  Level Estimated
16:46 30.5944 -89.5667 North 390 449 20,100  Level Houston Center
16:48 31.0174 -89.9099 North  Level Estimated
16:48 30.7072 -89.5656 360° North 403 464 21,000  Level Houston Center
16:49 31.1289 -89.8921 North  Level Estimated
16:49 30.8247 -89.5642 North 420 483 22,100  Level Houston Center
16:50 31.2405 -89.8743 North  Level Estimated
16:50 30.9464 -89.5644 360° North 434 499 23,200  Level Houston Center
16:51 31.0703 -89.5622 North 443 510 23,900 360 Climbing Houston Center
16:52 31.2247 -89.5592 North 460 529 24,000  Climbing Houston Center
16:53 31.2774 -89.5198 North  Level Estimated
16:53 31.3567 -89.5567 North 472 543 24,000  Level Houston Center
16:54 31.3887 -89.5051 North  Level Estimated
16:54 31.4900 -89.5561 360° North 476 548 24,500  Level Houston Center
16:55 31.6219 -89.5744 353° North 478 550 25,500 960 Climbing Houston Center
16:56 31.7542 -89.5889 355° North 478 550 26,500 720 Climbing Houston Center
16:57 31.8858 -89.6047 354° North 478 550 27,000 600 Climbing Houston Center
16:58 32.0483 -89.6225 355° North 486 559 27,800 840 Climbing Houston Center
16:59 32.1817 -89.6397 354° North 484 557 28,800 1,200 Climbing Houston Center
17:00 32.3214 -89.6567 354° North 483 556 30,500 1,260 Climbing Memphis Center
17:01 32.4486 -89.6706 355° North 471 542 31,500 960 Climbing Memphis Center
17:02 32.5761 -89.6867 354° North 461 531 32,500 900 Climbing Memphis Center
17:03 32.6994 -89.7006 355° North 456 525 33,400 900 Climbing Memphis Center
17:04 32.8247 -89.7144 355° North 451 519 34,400 780 Climbing Memphis Center
17:05 32.9647 -89.7283 355° North 451 519 35,000 660 Climbing Memphis Center
17:06 33.0942 -89.7447 354° North 456 525 35,800 900 Climbing Memphis Center
17:07 33.2153 -89.7614 353° North 456 525 36,900 660 Climbing Memphis Center
17:08 33.3344 -89.7778 353° North 438 504 37,200 360 Climbing Memphis Center
17:09 33.4533 -89.7919 354° North 432 497 37,700 360 Climbing Memphis Center
17:10 33.5725 -89.8086 353° North 427 491 38,000 120 Climbing Memphis Center
17:11 33.6811 -89.8206 355° North 427 491 38,000  Level Memphis Center
17:12 33.8000 -89.8347 354° North 427 491 38,000  Level Memphis Center
17:13 33.9294 -89.8489 355° North 421 484 38,000  Level Memphis Center
17:14 34.0528 -89.8658 354° North 432 497 38,000  Level Memphis Center
17:15 34.1758 -89.8803 354° North 437 503 38,000  Level Memphis Center
17:16 34.2992 -89.8944 355° North 450 518 38,000  Level Memphis Center
17:17 34.4222 -89.9114 354° North 450 518 38,000  Level Memphis Center
17:18 34.5497 -89.9283 354° North 444 511 38,000  Level Memphis Center
17:19 34.6750 -89.9456 354° North 449 517 38,000  Level Memphis Center
17:20 34.7856 -89.9653 352° North 449 517 38,000  Level Memphis Center
17:21 34.9192 -89.9772 356° North 465 535 38,000  Level Memphis Center
17:22 35.0589 -89.9817 359° North 465 535 38,000  Level Memphis Center
17:23 35.1839 -89.9456 13° North 459 528 38,000  Level Memphis Center
17:24 35.3089 -89.9117 12° North 464 534 38,000  Level Memphis Center
17:25 35.4342 -89.8781 12° North 464 534 38,000  Level Memphis Center
17:26 35.5653 -89.8644 North 464 534 38,000  Level Memphis Center
17:27 35.6886 -89.9019 346° North 452 520 38,000  Level Memphis Center
17:28 35.8014 -89.9500 341° North 441 507 38,000  Level Memphis Center
17:29 35.9267 -89.9956 344° North 452 520 38,000  Level Memphis Center
17:30 36.0497 -90.0361 345° North 458 527 38,000  Level Memphis Center
17:31 36.1750 -90.0819 344° North 458 527 38,000  Level Memphis Center
17:32 36.2981 -90.1253 344° North 458 527 38,000  Level Memphis Center
17:33 36.4253 -90.1686 345° North 463 533 38,000  Level Memphis Center
17:34 36.5506 -90.2097 345° North 463 533 38,000  Level Memphis Center
17:35 36.6733 -90.2533 344° North 463 533 38,000  Level Memphis Center
17:36 36.8028 -90.2972 345° North 463 533 38,000  Level Memphis Center
17:38 37.0836 -90.3917 345° North 468 539 38,000  Level Kansas City Center
17:39 37.2100 -90.4353 345° North 469 540 38,000  Level Kansas City Center
17:40 37.3358 -90.4797 344° North 469 540 38,000  Level Kansas City Center
17:42 37.4847 -90.5331 344° North 469 540 38,000  Level Kansas City Center
17:43 37.6108 -90.5786 344° North 470 541 38,000  Level Kansas City Center
17:44 37.7356 -90.6217 345° North 468 539 38,000  Level Kansas City Center
17:45 37.8625 -90.6681 344° North 473 544 38,000  Level Kansas City Center
17:46 37.9892 -90.7136 344° North 473 544 38,000  Level Kansas City Center
17:47 38.1167 -90.7594 344° North 474 545 38,000  Level Kansas City Center
17:48 38.2697 -90.8150 344° North 475 547 38,000  Level Kansas City Center
17:49 38.3989 -90.8633 344° North 478 550 38,000  Level Kansas City Center
17:50 38.5281 -90.9100 344° North 479 551 38,000  Level Kansas City Center
17:51 38.6606 -90.9475 348° North 484 557 38,000 -360 Level Kansas City Center
17:52 38.8003 -90.9264 North 494 568 37,300 -540 Descending Kansas City Center
17:53 38.9281 -90.8553 23° Northeast 503 579 37,000 -480 Descending Kansas City Center
17:54 39.0569 -90.7808 24° Northeast 504 580 36,400 -780 Descending Kansas City Center
17:55 39.1878 -90.7069 24° Northeast 507 583 35,400 -1,080 Descending Kansas City Center
17:56 39.3453 -90.6200 23° Northeast 510 587 34,200 -1,080 Descending Kansas City Center
17:57 39.4772 -90.5467 23° Northeast 513 590 33,200 -600 Descending Kansas City Center
17:58 39.6108 -90.4725 23° Northeast 519 597 33,000 -120 Descending Kansas City Center
17:59 39.7444 -90.3969 23° Northeast 521 600 33,000  Level Kansas City Center
18:00 39.8931 -90.3142 23° Northeast 520 598 33,000  Level Kansas City Center
18:01 39.9975 -90.2544 24° Northeast 518 596 33,000  Level Chicago Center
18:02 40.1311 -90.1792 23° Northeast 522 601 33,000  Level Chicago Center
18:03 40.2633 -90.1053 23° Northeast 517 595 33,000 -480 Level Chicago Center
18:04 40.3953 -90.0297 24° Northeast 516 594 32,100 -1,320 Descending Chicago Center
18:05 40.5408 -89.9461 24° Northeast 500 575 30,300 -1,680 Descending Chicago Center
18:06 40.6603 -89.8775 24° Northeast 477 549 28,700 -1,620 Descending Chicago Center
18:07 40.7786 -89.8086 24° Northeast 468 539 27,000 -1,620 Descending Chicago Center
18:08 40.8978 -89.7414 23° Northeast 466 536 25,400 -1,500 Descending Chicago Center
18:09 41.0072 -89.6786 23° Northeast 451 519 24,000 -720 Descending Chicago Center
18:10 41.1389 -89.6014 24° Northeast 437 503 24,000  Level Chicago Center
18:11 41.2078 -89.4744 54° Northeast 436 502 24,000 -600 Level Chicago Center
18:12 41.2614 -89.3386 62° Northeast 423 487 22,800 -1,800 Descending Chicago Center
18:13 41.3131 -89.2106 62° Northeast 404 465 20,300 -2,340 Descending Chicago Center
18:14 41.3597 -89.0875 63° Northeast 380 437 18,000 -2,220 Descending Chicago Center
18:15 41.4069 -88.9717 61° Northeast 364 419 15,800 -2,640 Descending Chicago Center
18:16 41.4631 -88.8328 62° Northeast 357 411 12,600 -2,340 Descending Chicago Center
18:17 41.5089 -88.7172 62° Northeast 355 409 11,000 -780 Descending Chicago Center
18:19 41.5525 -88.6086 62° Northeast 340 391 11,100  Climbing Chicago Center
18:20 41.5967 -88.4975 62° Northeast 339 390 11,100 -300 Level Chicago Center
18:21 41.6536 -88.4064 50° Northeast 316 364 10,500 -960 Descending Chicago Center
18:22 41.7256 -88.3450 32° Northeast 306 352 9,100 -780 Descending Chicago Center
18:23 41.8114 -88.3358 North 255 293 9,000 -540 Descending Chicago Center
18:24 41.8703 -88.3550 346° North 234 269 8,000 -600 Descending Chicago Center
18:25 41.8831 -88.4317 283° West 214 246 7,800 -1,020 Descending Chicago Center
18:27 41.9667 -88.4333 359° North 197 227 5,000 -960 Descending Chicago TRACON
18:28 41.9667 -88.3500 90° East 199 229 5,000  Level Chicago TRACON
18:29 41.9664 -88.2711 90° East 202 232 5,000 -120 Level Chicago Center
18:30 41.9675 -88.1986 89° East 197 227 4,800 -540 Descending Chicago Center
18:31 41.9675 -88.1278 90° East 194 223 3,900 -1,080 Descending Chicago Center
18:32 41.9667 -88.0667 91° East 181 208 2,900 -1,380 Descending Chicago TRACON